Time;durP1;ratioP1;P1;durP2;ratioP2;P2;SDS_P1;SDS_P2;PMS_P1;PMS_P2;Temp;Humidity;BMP_temperature;BMP_pressure;BME280_temperature;BME280_humidity;BME280_pressure;Samples;Min_cycle;Max_cycle;Signal;HPM_P1;HPM_P2
2024/03/15 00:01:58;;;;;;;23.27;18.05;;;;;;;7.19;100.00;150479.13;10503857;28;20050;-74
2024/03/15 00:07:01;;;;;;;20.65;16.38;;;;;;;7.21;100.00;150484.25;10503151;28;20033;-74
2024/03/15 00:12:03;;;;;;;21.75;17.35;;;;;;;7.40;100.00;150530.66;10502562;28;20040;-74
2024/03/15 00:17:05;;;;;;;18.05;16.15;;;;;;;7.33;100.00;150513.88;10501878;28;20120;-74
2024/03/15 00:22:07;;;;;;;21.67;16.88;;;;;;;7.37;100.00;150522.91;10502387;28;20127;-74
2024/03/15 00:27:09;;;;;;;29.33;20.30;;;;;;;7.27;100.00;150498.47;10502334;28;20037;-73
2024/03/15 00:32:11;;;;;;;19.88;14.77;;;;;;;7.32;100.00;150512.59;10501377;28;20068;-72
2024/03/15 00:37:13;;;;;;;18.83;15.50;;;;;;;7.16;100.00;150470.09;10501104;28;20048;-73
2024/03/15 00:42:15;;;;;;;21.13;16.60;;;;;;;7.30;100.00;150506.16;10500515;28;20098;-74
2024/03/15 00:47:17;;;;;;;17.58;15.82;;;;;;;7.11;100.00;150457.22;10483221;28;20221;-74
2024/03/15 00:52:19;;;;;;;38.33;20.42;;;;;;;7.14;100.00;150466.25;10500757;28;20037;-73
2024/03/15 00:57:20;;;;;;;19.33;14.75;;;;;;;6.91;100.00;150408.31;10500120;28;20123;-73
2024/03/15 01:02:22;;;;;;;32.00;20.58;;;;;;;6.84;100.00;150390.28;10499860;28;20043;-73
2024/03/15 01:07:25;;;;;;;18.92;15.98;;;;;;;6.99;100.00;150428.88;10481808;28;20059;-73
2024/03/15 01:12:27;;;;;;;39.17;20.83;;;;;;;6.88;100.00;150400.59;10499520;28;20123;-73
2024/03/15 01:17:28;;;;;;;20.95;15.13;;;;;;;6.75;100.00;150367.09;10500312;28;20048;-72
2024/03/15 01:22:32;;;;;;;21.48;15.57;;;;;;;6.63;100.00;150336.19;10499821;28;20090;-73
2024/03/15 01:27:33;;;;;;;16.00;13.23;;;;;;;6.55;100.00;150318.22;10481474;28;20439;-73
2024/03/15 01:32:36;;;;;;;16.52;13.93;;;;;;;6.76;100.00;150370.94;10480762;28;20072;-73
2024/03/15 01:37:38;;;;;;;13.90;12.60;;;;;;;6.55;100.00;150318.22;10499340;28;20044;-72
2024/03/15 01:42:41;;;;;;;18.25;14.90;;;;;;;6.66;100.00;150345.22;10498364;28;20502;-73
2024/03/15 01:47:43;;;;;;;16.40;14.80;;;;;;;6.50;100.00;150304.03;10498359;28;20496;-73
2024/03/15 01:52:45;;;;;;;17.25;13.57;;;;;;;6.39;100.00;150277.00;10498411;28;20123;-73
2024/03/15 01:57:47;;;;;;;16.30;13.05;;;;;;;6.38;100.00;150273.16;10481061;28;20116;-73
2024/03/15 02:02:49;;;;;;;15.05;12.77;;;;;;;6.43;100.00;150286.03;10498223;28;20040;-73
2024/03/15 02:07:51;;;;;;;12.93;11.63;;;;;;;6.43;100.00;150286.03;10499012;28;20069;-73
2024/03/15 02:12:53;;;;;;;13.20;11.82;;;;;;;6.43;100.00;150286.03;10506382;28;20051;-73
2024/03/15 02:17:55;;;;;;;23.50;13.65;;;;;;;6.46;100.00;150295.03;10488251;28;20040;-73
2024/03/15 02:22:58;;;;;;;13.90;12.52;;;;;;;6.48;100.00;150298.91;10505708;28;20067;-73
2024/03/15 02:28:00;;;;;;;12.85;11.55;;;;;;;6.32;100.00;150258.97;10505877;28;20044;-73
2024/03/15 02:33:01;;;;;;;15.13;11.75;;;;;;;6.24;100.00;150239.72;10505297;28;20447;-73
2024/03/15 02:38:03;;;;;;;14.88;11.90;;;;;;;6.34;100.00;150262.88;10506288;28;20064;-73
2024/03/15 02:43:06;;;;;;;13.85;12.15;;;;;;;6.16;100.00;150217.81;10504758;28;20032;-74
2024/03/15 02:48:07;;;;;;;12.98;11.07;;;;;;;6.05;100.00;150192.06;10505401;28;20104;-72
2024/03/15 02:53:11;;;;;;;11.98;10.77;;;;;;;6.14;100.00;150213.94;10487027;28;20044;-72
2024/03/15 02:58:13;;;;;;;18.48;12.98;;;;;;;6.10;100.00;150203.63;10504944;28;20032;-73
2024/03/15 03:03:15;;;;;;;17.13;12.68;;;;;;;6.09;100.00;150201.09;10486279;28;20048;-74
2024/03/15 03:08:16;;;;;;;15.27;12.07;;;;;;;6.15;100.00;150215.22;10504175;28;20135;-74
2024/03/15 03:13:18;;;;;;;12.65;11.35;;;;;;;6.04;100.00;150188.22;10485845;28;20101;-73
2024/03/15 03:18:21;;;;;;;11.05;9.95;;;;;;;6.13;100.00;150210.09;10503810;28;20536;-73
2024/03/15 03:23:23;;;;;;;15.00;13.23;;;;;;;5.97;100.00;150170.19;10503447;28;20037;-73
2024/03/15 03:28:26;;;;;;;13.23;11.15;;;;;;;6.04;100.00;150189.50;10503575;28;20389;-73
2024/03/15 03:33:28;;;;;;;15.18;11.57;;;;;;;5.98;100.00;150174.09;10504002;28;20045;-73
2024/03/15 03:38:30;;;;;;;11.20;10.18;;;;;;;6.09;100.00;150199.81;10503960;28;20407;-74
2024/03/15 03:43:31;;;;;;;12.55;11.35;;;;;;;6.05;100.00;150192.06;10503143;28;20036;-73
2024/03/15 03:48:33;;;;;;;11.70;10.50;;;;;;;5.86;100.00;150143.16;10503329;28;20048;-72
2024/03/15 03:53:35;;;;;;;12.63;10.00;;;;;;;5.89;100.00;150149.56;10502584;28;20037;-73
2024/03/15 03:58:37;;;;;;;13.35;11.15;;;;;;;5.80;100.00;150127.72;10502980;28;20041;-73
2024/03/15 04:03:38;;;;;;;11.82;10.40;;;;;;;5.91;100.00;150154.72;10502337;28;20040;-73
2024/03/15 04:08:40;;;;;;;13.45;11.02;;;;;;;5.90;100.00;150153.44;10502546;28;20040;-73
2024/03/15 04:13:42;;;;;;;15.73;11.23;;;;;;;5.89;100.00;150149.56;10502752;28;20041;-72
2024/03/15 04:18:44;;;;;;;12.88;11.30;;;;;;;6.02;100.00;150184.38;10484525;28;20044;-74
2024/03/15 04:23:47;;;;;;;12.95;10.82;;;;;;;6.04;100.00;150188.22;10501930;28;20051;-74
2024/03/15 04:28:51;;;;;;;14.10;10.02;;;;;;;5.90;100.00;150153.44;10483519;28;20127;-74
2024/03/15 04:33:53;;;;;;;12.25;10.68;;;;;;;5.89;100.00;150150.88;10500394;28;20087;-73
2024/03/15 04:38:56;;;;;;;12.15;9.73;;;;;;;5.97;100.00;150171.47;10501414;28;20040;-74
2024/03/15 04:43:57;;;;;;;13.77;10.07;;;;;;;6.12;100.00;150207.53;10500754;28;20115;-73
2024/03/15 04:48:59;;;;;;;12.43;10.32;;;;;;;5.94;100.00;150163.78;10500534;28;20045;-73
2024/03/15 04:54:01;;;;;;;12.38;9.98;;;;;;;5.98;100.00;150174.09;10500500;28;20056;-72
2024/03/15 04:59:04;;;;;;;12.50;11.25;;;;;;;6.23;100.00;150237.09;10500349;28;20048;-73
2024/03/15 05:04:06;;;;;;;12.02;10.80;;;;;;;6.27;100.00;150246.13;10499453;28;20553;-73
2024/03/15 05:09:10;;;;;;;17.17;10.50;;;;;;;6.34;100.00;150264.16;10500894;28;20571;-73
2024/03/15 05:14:13;;;;;;;14.45;11.50;;;;;;;6.50;100.00;150304.03;10500344;28;20086;-73
2024/03/15 05:19:14;;;;;;;12.27;10.45;;;;;;;6.66;100.00;150345.22;10499578;28;20123;-73
2024/03/15 05:24:18;;;;;;;12.95;9.27;;;;;;;6.62;100.00;150334.91;10481463;28;20400;-74
2024/03/15 05:29:20;;;;;;;11.68;10.15;;;;;;;6.79;100.00;150378.69;10483539;28;20052;-73
2024/03/15 05:34:22;;;;;;;12.15;10.80;;;;;;;6.88;100.00;150400.59;10465002;28;20075;-73
2024/03/15 05:39:24;;;;;;;11.90;10.20;;;;;;;6.84;100.00;150390.28;10499526;28;20055;-73
2024/03/15 05:44:26;;;;;;;10.18;9.07;;;;;;;6.83;100.00;150387.72;10499449;28;20041;-73
2024/03/15 05:49:27;;;;;;;11.73;10.45;;;;;;;7.04;100.00;150440.53;10482296;28;20238;-73
2024/03/15 05:54:29;;;;;;;10.68;9.57;;;;;;;7.20;100.00;150481.69;10481690;28;20385;-74
2024/03/15 05:59:31;;;;;;;11.60;10.48;;;;;;;7.19;100.00;150477.84;10501642;28;20119;-72
2024/03/15 06:04:33;;;;;;;16.40;11.27;;;;;;;7.43;100.00;150539.63;10500292;28;20112;-73
2024/03/15 06:09:36;;;;;;;10.82;9.63;;;;;;;7.53;100.00;150565.44;10499545;28;20044;-73
2024/03/15 06:14:39;;;;;;;9.75;8.75;;;;;;;7.56;100.00;150573.13;10498054;28;20041;-73
2024/03/15 06:19:41;;;;;;;12.85;10.40;;;;;;;7.84;100.00;150642.72;10499152;28;20047;-73
2024/03/15 06:24:45;;;;;;;10.73;9.10;;;;;;;7.97;100.00;150676.22;10480520;28;20041;-72
2024/03/15 06:29:52;;;;;;;11.18;10.07;;;;;;;8.09;100.00;150705.84;10479800;28;20068;-74
2024/03/15 06:34:57;;;;;;;11.10;10.10;;;;;;;8.27;100.00;150750.94;10497879;28;20403;-74
2024/03/15 06:45:23;;;;;;;11.30;10.18;;;;;;;8.27;100.00;150750.94;10498967;28;20060;-74
2024/03/15 06:50:37;;;;;;;13.07;9.95;;;;;;;8.46;100.00;150800.00;10498611;28;20040;-74
2024/03/15 06:55:39;;;;;;;12.15;10.77;;;;;;;8.72;100.00;150864.44;10499457;28;20094;-74
2024/03/15 07:00:41;;;;;;;10.90;9.90;;;;;;;8.88;100.00;150904.44;10504756;28;20403;-75
2024/03/15 07:05:43;;;;;;;10.85;9.63;;;;;;;8.70;100.00;150859.28;10486354;28;20059;-75
2024/03/15 07:10:44;;;;;;;14.15;10.52;;;;;;;8.80;100.00;150885.06;10504665;28;20075;-74
2024/03/15 07:15:47;;;;;;;10.35;9.35;;;;;;;9.00;100.00;150936.66;10504212;28;20045;-75
2024/03/15 07:20:50;;;;;;;10.77;9.80;;;;;;;9.09;100.00;150959.88;10503693;28;20159;-75
2024/03/15 07:25:52;;;;;;;11.10;10.10;;;;;;;9.32;100.00;151016.63;10504780;28;20045;-74
2024/03/15 07:30:55;;;;;;;12.05;9.90;;;;;;;9.53;100.00;151069.53;10503647;28;20049;-74
2024/03/15 07:36:08;;;;;;;10.98;9.40;;;;;;;9.71;100.00;151115.97;10485215;28;20040;-74
2024/03/15 07:41:11;;;;;;;10.90;9.27;;;;;;;9.96;100.00;151177.88;10503218;28;20056;-74
2024/03/15 07:46:13;;;;;;;10.90;9.73;;;;;;;10.18;100.00;151233.41;10503324;28;20045;-74
2024/03/15 07:51:15;;;;;;;9.75;8.75;;;;;;;10.32;100.00;151270.91;10502640;28;20397;-74
2024/03/15 07:56:19;;;;;;;9.88;8.98;;;;;;;10.46;100.00;151304.47;10503251;28;20060;-74
2024/03/15 08:01:20;;;;;;;10.45;9.45;;;;;;;10.51;100.00;151318.66;10502910;28;20054;-74
2024/03/15 08:06:23;;;;;;;11.57;9.27;;;;;;;11.22;100.00;151496.88;10501502;28;20043;-75
2024/03/15 08:11:25;;;;;;;10.25;9.27;;;;;;;11.28;100.00;151513.66;10502445;28;20503;-75
2024/03/15 08:16:33;;;;;;;10.25;9.18;;;;;;;11.71;100.00;151622.22;10502316;28;20051;-74
2024/03/15 08:21:37;;;;;;;8.88;8.07;;;;;;;12.22;96.56;151750.19;10483721;28;20040;-74
2024/03/15 08:26:39;;;;;;;9.02;7.65;;;;;;;12.58;94.94;151843.31;10501298;28;20106;-74
2024/03/15 08:31:41;;;;;;;8.68;7.80;;;;;;;12.84;92.71;151908.00;10501329;28;20396;-76
2024/03/15 08:36:43;;;;;;;8.57;7.78;;;;;;;13.09;91.84;151972.63;10482808;28;20036;-74
2024/03/15 08:41:45;;;;;;;8.93;8.13;;;;;;;13.52;87.73;152081.38;10500437;28;20419;-74
2024/03/15 08:46:47;;;;;;;8.40;7.60;;;;;;;13.50;88.98;152074.88;10504375;28;20074;-75
2024/03/15 08:51:49;;;;;;;7.90;7.00;;;;;;;13.56;90.04;152090.44;10504239;28;20032;-75
2024/03/15 08:56:51;;;;;;;7.72;6.97;;;;;;;13.61;89.48;152104.66;10504904;28;20044;-75
2024/03/15 09:01:53;;;;;;;7.57;6.82;;;;;;;14.03;86.87;152209.47;10504176;28;20074;-75
2024/03/15 09:06:57;;;;;;;8.07;6.30;;;;;;;14.13;85.92;152236.69;10499392;28;20045;-75
2024/03/15 09:11:59;;;;;;;8.18;7.47;;;;;;;14.31;86.97;152282.00;10499420;28;20419;-74
2024/03/15 09:17:11;;;;;;;8.15;7.35;;;;;;;14.70;83.27;152380.47;10499271;28;20044;-75
2024/03/15 09:22:13;;;;;;;8.13;7.35;;;;;;;14.86;81.49;152421.88;10498629;28;20037;-74
2024/03/15 09:27:16;;;;;;;7.55;6.85;;;;;;;14.92;80.75;152436.19;10498896;28;20037;-75
2024/03/15 09:32:21;;;;;;;4.40;4.00;;;;;;;15.48;79.40;152577.38;10500687;28;20086;-75
2024/03/15 09:37:23;;;;;;;2.17;1.70;;;;;;;16.21;75.88;152762.78;10499108;28;20044;-75
2024/03/15 09:42:29;;;;;;;2.22;1.50;;;;;;;16.55;74.24;152849.63;10498709;28;20431;-75
2024/03/15 09:47:34;;;;;;;;;;;;;;;16.85;70.35;152927.50;10499895;28;20032;-75
2024/03/15 09:52:36;;;;;;;1.95;1.30;;;;;;;16.82;70.27;152918.41;10498599;28;19920;-75
2024/03/15 09:57:38;;;;;;;1.83;1.27;;;;;;;17.10;69.17;152989.78;10498101;28;20037;-75
2024/03/15 10:02:44;;;;;;;2.25;1.10;;;;;;;17.23;67.66;153022.22;10498521;28;20050;-75
2024/03/15 10:07:50;;;;;;;1.50;1.05;;;;;;;17.51;67.58;153094.88;10498999;28;20505;-74
2024/03/15 10:12:52;;;;;;;1.33;1.20;;;;;;;17.65;66.52;153129.91;10499953;28;20048;-75
2024/03/15 10:17:56;;;;;;;1.80;1.20;;;;;;;17.60;67.96;153116.94;10498793;28;20042;-75
2024/03/15 10:22:58;;;;;;;1.00;0.82;;;;;;;17.84;64.52;153177.97;10499504;28;20124;-75
2024/03/15 10:28:00;;;;;;;1.15;0.77;;;;;;;18.11;64.44;153246.81;10500003;28;20072;-76
2024/03/15 10:33:05;;;;;;;1.38;0.70;;;;;;;18.29;59.55;153293.53;10505666;28;20040;-76
2024/03/15 10:38:12;;;;;;;1.65;0.90;;;;;;;18.03;58.68;153227.31;10508327;28;20084;-76
2024/03/15 10:43:14;;;;;;;1.17;1.00;;;;;;;18.03;60.64;153227.31;10507860;28;20063;-74
2024/03/15 10:48:17;;;;;;;0.98;0.85;;;;;;;18.06;60.60;153235.13;10507030;28;20515;-75
2024/03/15 10:53:21;;;;;;;1.30;1.00;;;;;;;17.99;59.23;153216.91;10506176;28;20052;-76
2024/03/15 10:58:23;;;;;;;2.08;1.00;;;;;;;18.35;58.99;153307.78;10505724;28;20123;-76
2024/03/15 11:03:25;;;;;;;1.42;1.17;;;;;;;18.45;57.54;153333.75;10506395;28;20102;-76
2024/03/15 11:08:33;;;;;;;0.95;0.88;;;;;;;19.08;55.75;153494.88;10505236;28;20051;-75
2024/03/15 11:13:36;;;;;;;1.42;1.13;;;;;;;19.30;54.76;153550.75;10487950;28;20048;-74
2024/03/15 11:18:38;;;;;;;1.38;1.17;;;;;;;19.27;54.17;153542.94;10504367;28;20124;-76
2024/03/15 11:23:40;;;;;;;1.13;0.90;;;;;;;19.35;53.72;153562.44;10486447;28;20051;-75
2024/03/15 11:28:42;;;;;;;1.50;1.05;;;;;;;19.54;54.43;153610.50;10504497;28;20052;-76
2024/03/15 11:33:44;;;;;;;1.60;1.13;;;;;;;19.24;55.72;153533.84;10504245;28;20074;-75
2024/03/15 11:38:46;;;;;;;1.42;1.15;;;;;;;18.95;55.25;153461.09;10503614;28;20080;-74
2024/03/15 11:43:53;;;;;;;2.15;0.90;;;;;;;19.65;53.33;153639.13;10502823;28;20045;-74
2024/03/15 11:48:55;;;;;;;1.88;1.00;;;;;;;20.06;50.08;153743.13;10503845;28;20040;-75
2024/03/15 11:53:57;;;;;;;1.10;0.93;;;;;;;19.83;52.91;153684.59;10503036;28;20400;-75
2024/03/15 11:59:00;;;;;;;1.40;1.10;;;;;;;19.73;52.46;153658.63;10485187;28;20037;-75
2024/03/15 12:04:02;;;;;;;1.58;1.15;;;;;;;19.67;49.61;153643.03;10484907;28;20037;-76
2024/03/15 12:09:12;;;;;;;1.40;0.95;;;;;;;20.00;47.88;153728.78;10502876;28;20495;-75
2024/03/15 12:14:14;;;;;;;1.05;0.80;;;;;;;20.08;49.62;153748.31;10502366;28;20033;-75
2024/03/15 12:19:16;;;;;;;1.02;0.77;;;;;;;20.33;47.18;153813.31;10501793;28;20140;-73
2024/03/15 12:24:18;;;;;;;1.10;1.00;;;;;;;20.31;45.49;153808.09;10503174;28;20051;-68
2024/03/15 12:29:20;;;;;;;1.08;0.88;;;;;;;19.63;43.37;153635.22;10503948;28;20052;-73
2024/03/15 12:34:22;;;;;;;0.65;0.50;;;;;;;19.54;43.70;153610.50;10484365;28;20393;-74
2024/03/15 12:39:23;;;;;;;0.80;0.70;;;;;;;19.32;44.32;153555.91;10501904;28;20071;-74
2024/03/15 12:44:25;;;;;;;0.80;0.50;;;;;;;19.30;45.04;153550.75;10486969;28;20044;-73
2024/03/15 12:49:27;;;;;;;0.77;0.65;;;;;;;19.06;46.23;153489.66;10504859;28;20488;-74
2024/03/15 12:54:29;;;;;;;0.85;0.55;;;;;;;19.22;46.19;153529.94;10485220;28;20033;-74
2024/03/15 12:59:31;;;;;;;0.80;0.50;;;;;;;19.19;45.52;153522.13;10501497;28;20170;-73
2024/03/15 13:04:32;;;;;;;1.08;0.57;;;;;;;19.29;46.93;153546.81;10483638;28;20075;-73
2024/03/15 13:09:34;;;;;;;0.60;0.60;;;;;;;19.26;48.09;153540.34;10500944;28;20113;-73
2024/03/15 13:14:36;;;;;;;1.85;0.65;;;;;;;19.20;49.32;153523.44;10501816;28;20040;-73
2024/03/15 13:19:38;;;;;;;0.70;0.60;;;;;;;19.31;49.87;153553.34;10501568;28;20496;-73
2024/03/15 13:24:40;;;;;;;1.55;0.80;;;;;;;19.49;48.42;153598.81;10450920;28;20044;-73
2024/03/15 13:29:42;;;;;;;1.25;1.15;;;;;;;19.51;49.31;153603.97;10458726;28;20064;-73
2024/03/15 13:34:45;;;;;;;0.93;0.63;;;;;;;19.24;49.29;153535.13;10458919;28;20037;-73
2024/03/15 13:39:46;;;;;;;0.98;0.80;;;;;;;19.42;49.27;153580.59;10459576;28;20045;-74
2024/03/15 13:44:48;;;;;;;1.00;0.90;;;;;;;19.14;49.84;153510.44;10458484;28;20108;-73
2024/03/15 13:49:50;;;;;;;1.15;1.00;;;;;;;19.00;51.12;153472.78;10456650;28;20045;-72
2024/03/15 13:54:52;;;;;;;1.25;1.05;;;;;;;18.88;51.49;153442.91;10458382;28;20087;-74
2024/03/15 13:59:54;;;;;;;1.63;0.60;;;;;;;18.80;50.79;153422.13;10458005;28;20045;-74
2024/03/15 14:04:56;;;;;;;2.38;0.85;;;;;;;18.77;51.94;153414.31;10458053;28;20047;-74
2024/03/15 14:09:57;;;;;;;1.42;0.43;;;;;;;18.75;52.49;153410.44;10440371;28;20041;-74
2024/03/15 14:14:59;;;;;;;1.00;0.57;;;;;;;18.86;51.55;153439.03;10458815;28;20413;-74
2024/03/15 14:20:04;;;;;;;0.73;0.50;;;;;;;18.75;52.34;153410.44;10458230;28;20056;-73
2024/03/15 14:25:06;;;;;;;0.40;0.40;;;;;;;18.60;51.91;153372.72;10457873;28;20408;-73
2024/03/15 14:30:09;;;;;;;0.40;0.40;;;;;;;18.39;52.32;153319.47;10439747;28;20048;-73
2024/03/15 14:35:12;;;;;;;1.17;0.68;;;;;;;18.15;53.20;153257.19;10457306;28;20390;-73
2024/03/15 14:40:29;;;;;;;0.77;0.60;;;;;;;17.68;57.61;153137.69;10458168;28;20051;-73
2024/03/15 14:45:30;;;;;;;0.77;0.50;;;;;;;17.46;59.78;153081.91;10458413;28;20076;-73
2024/03/15 14:50:33;;;;;;;0.50;0.50;;;;;;;17.47;60.65;153084.47;10458964;28;20111;-73
2024/03/15 14:55:40;;;;;;;1.42;0.80;;;;;;;17.49;61.37;153089.69;10457943;28;20448;-73
2024/03/15 15:00:47;;;;;;;0.60;0.60;;;;;;;17.47;60.77;153083.19;10456504;28;20489;-73
2024/03/15 15:05:51;;;;;;;1.00;0.57;;;;;;;17.56;61.07;153106.53;10457565;28;20436;-74
2024/03/15 15:10:56;;;;;;;0.80;0.47;;;;;;;17.59;60.58;153114.34;10439793;28;20041;-73
2024/03/15 15:15:58;;;;;;;0.90;0.70;;;;;;;17.54;61.09;153101.38;10458798;28;20503;-74
2024/03/15 15:21:00;;;;;;;0.77;0.77;;;;;;;17.46;60.75;153080.59;10465125;28;20472;-73
2024/03/15 15:26:01;;;;;;;0.75;0.50;;;;;;;17.49;59.47;153089.69;10465531;28;20041;-74
2024/03/15 15:31:03;;;;;;;0.70;0.70;;;;;;;17.22;60.67;153020.94;10464469;28;20127;-74
2024/03/15 15:36:05;;;;;;;1.00;0.60;;;;;;;17.03;61.38;152971.59;10463632;28;20112;-74
2024/03/15 15:41:08;;;;;;;1.55;0.88;;;;;;;16.69;70.75;152884.63;10463758;28;20076;-74
2024/03/15 15:46:10;;;;;;;1.27;1.00;;;;;;;15.86;83.39;152674.63;10464196;28;20417;-73
2024/03/15 15:51:14;;;;;;;1.70;1.30;;;;;;;15.31;90.16;152534.59;10464555;28;20415;-74
2024/03/15 15:56:16;;;;;;;1.45;1.20;;;;;;;15.09;91.87;152478.88;10446850;28;20048;-73
2024/03/15 16:01:18;;;;;;;1.38;0.88;;;;;;;15.01;93.20;152458.19;10447106;28;20120;-73
2024/03/15 16:06:20;;;;;;;1.10;1.00;;;;;;;15.10;91.31;152482.81;10463191;28;20048;-73
2024/03/15 16:11:21;;;;;;;2.20;0.90;;;;;;;15.04;88.78;152467.22;10445420;28;20047;-73
2024/03/15 16:16:23;;;;;;;2.20;1.10;;;;;;;15.05;90.99;152469.84;10444560;28;20048;-73
2024/03/15 16:21:25;;;;;;;1.20;1.00;;;;;;;15.02;89.04;152462.06;10444371;28;20064;-74
2024/03/15 16:26:27;;;;;;;2.33;1.05;;;;;;;15.05;86.92;152468.53;10463126;28;20113;-73
2024/03/15 16:31:30;;;;;;;1.42;1.08;;;;;;;15.07;86.55;152475.03;10460958;28;20554;-73
2024/03/15 16:36:32;;;;;;;1.85;0.90;;;;;;;15.11;85.87;152485.38;10461662;28;20123;-73
2024/03/15 16:41:35;;;;;;;0.95;0.90;;;;;;;15.11;84.50;152485.38;10443732;28;20570;-73
2024/03/15 16:46:38;;;;;;;2.17;0.90;;;;;;;15.17;83.91;152498.34;10461296;28;20076;-72
2024/03/15 16:51:40;;;;;;;1.00;0.90;;;;;;;15.07;85.77;152473.72;10460349;28;20090;-73
2024/03/15 16:56:41;;;;;;;0.70;0.60;;;;;;;14.59;90.61;152351.97;10460067;28;20040;-73
2024/03/15 17:01:43;;;;;;;1.08;0.70;;;;;;;14.19;92.98;152249.63;10442023;28;20049;-72
2024/03/15 17:06:46;;;;;;;0.88;0.60;;;;;;;14.18;90.07;152247.06;10459915;28;20048;-72
2024/03/15 17:11:48;;;;;;;0.82;0.68;;;;;;;13.90;91.92;152177.16;10459279;28;20079;-73
2024/03/15 17:16:50;;;;;;;0.85;0.70;;;;;;;13.85;92.47;152165.47;10459114;28;20123;-73
2024/03/15 17:21:52;;;;;;;0.65;0.57;;;;;;;13.71;92.51;152127.94;10460188;28;20127;-74
2024/03/15 17:26:55;;;;;;;0.88;0.70;;;;;;;13.55;93.56;152089.16;10460924;28;20039;-73
2024/03/15 17:31:57;;;;;;;0.70;0.60;;;;;;;13.49;94.10;152072.31;10442362;28;20075;-72
2024/03/15 17:36:59;;;;;;;1.17;0.70;;;;;;;13.66;93.30;152116.31;10459666;28;20468;-74
2024/03/15 17:42:01;;;;;;;1.05;0.63;;;;;;;13.76;93.25;152142.19;10458373;28;20055;-73
2024/03/15 17:47:04;;;;;;;0.93;0.60;;;;;;;13.72;96.22;152130.53;10459186;28;20047;-72
2024/03/15 17:52:06;;;;;;;0.82;0.70;;;;;;;13.66;98.06;152115.03;10458880;28;20048;-74
2024/03/15 17:57:09;;;;;;;1.42;0.80;;;;;;;13.61;100.00;152104.66;10458159;28;20404;-74
2024/03/15 18:02:11;;;;;;;0.75;0.63;;;;;;;13.58;100.00;152096.88;10460501;28;20063;-74
2024/03/15 18:07:14;;;;;;;1.55;0.90;;;;;;;13.58;100.00;152095.59;10442594;28;20072;-74
2024/03/15 18:12:16;;;;;;;1.10;0.98;;;;;;;13.49;100.00;152073.59;10425372;28;20049;-73
2024/03/15 18:17:18;;;;;;;1.27;0.70;;;;;;;13.42;100.00;152054.22;10460797;28;20044;-74
2024/03/15 18:22:20;;;;;;;1.23;0.80;;;;;;;13.38;100.00;152046.44;10459283;28;20037;-74
2024/03/15 18:27:22;;;;;;;1.23;0.82;;;;;;;13.45;100.00;152063.25;10459732;28;20053;-73
2024/03/15 18:32:24;;;;;;;0.82;0.80;;;;;;;13.40;100.00;152050.31;10441575;28;20083;-74
2024/03/15 18:37:26;;;;;;;0.85;0.80;;;;;;;13.36;100.00;152039.94;10442617;28;20033;-73
2024/03/15 18:42:28;;;;;;;0.88;0.80;;;;;;;13.49;100.00;152072.31;10459124;28;20114;-73
2024/03/15 18:47:30;;;;;;;1.10;0.82;;;;;;;13.44;100.00;152059.38;10458498;28;20083;-73
2024/03/15 18:52:32;;;;;;;0.98;0.80;;;;;;;13.41;100.00;152052.88;10463803;28;20513;-73
2024/03/15 18:57:34;;;;;;;1.17;1.00;;;;;;;13.35;99.99;152038.66;10464735;28;20041;-73
2024/03/15 19:02:38;;;;;;;1.30;1.10;;;;;;;13.23;100.00;152006.31;10464696;28;20055;-73
2024/03/15 19:07:39;;;;;;;1.10;0.90;;;;;;;13.18;100.00;151993.34;10465494;28;20098;-73
2024/03/15 19:12:41;;;;;;;1.08;0.90;;;;;;;13.14;100.00;151984.28;10466061;28;20056;-73
2024/03/15 19:17:43;;;;;;;0.70;0.70;;;;;;;13.11;99.64;151976.53;10466659;28;20048;-73
2024/03/15 19:22:46;;;;;;;1.42;0.88;;;;;;;12.98;100.00;151944.19;10449767;28;20060;-74
2024/03/15 19:27:48;;;;;;;0.80;0.80;;;;;;;12.91;100.00;151926.06;10452558;28;20052;-75
2024/03/15 19:32:50;;;;;;;0.82;0.82;;;;;;;12.72;100.00;151878.22;10451661;28;20045;-74
2024/03/15 19:37:52;;;;;;;1.73;1.00;;;;;;;12.72;100.00;151876.94;10465852;28;20049;-73
2024/03/15 19:42:57;;;;;;;1.10;1.00;;;;;;;12.53;100.00;151830.41;10465443;28;20079;-73
2024/03/15 19:47:59;;;;;;;1.73;1.10;;;;;;;12.51;100.00;151825.19;10446539;28;20049;-75
2024/03/15 19:53:03;;;;;;;0.90;0.82;;;;;;;12.61;100.00;151851.03;10447940;28;20102;-72
2024/03/15 19:58:05;;;;;;;1.90;0.98;;;;;;;12.57;100.00;151839.41;10465928;28;20075;-73
2024/03/15 20:03:07;;;;;;;1.33;0.82;;;;;;;12.60;99.33;151848.47;10465274;28;20045;-75
2024/03/15 20:08:10;;;;;;;1.13;1.00;;;;;;;12.52;100.00;151827.78;10464453;28;20040;-75
2024/03/15 20:13:12;;;;;;;1.40;0.90;;;;;;;12.50;99.50;151822.63;10463867;28;20501;-74
2024/03/15 20:18:14;;;;;;;1.08;0.98;;;;;;;12.51;99.08;151823.91;10464963;28;20041;-74
2024/03/15 20:23:15;;;;;;;1.10;0.90;;;;;;;12.53;98.90;151829.09;10467083;28;20417;-76
2024/03/15 20:28:19;;;;;;;1.30;0.80;;;;;;;12.45;98.77;151808.41;10447753;28;20040;-74
2024/03/15 20:33:21;;;;;;;0.93;0.65;;;;;;;12.38;99.17;151791.59;10444582;28;20049;-73
2024/03/15 20:38:23;;;;;;;1.48;0.75;;;;;;;12.24;99.57;151756.69;10462930;28;20048;-74
2024/03/15 20:43:25;;;;;;;1.17;0.80;;;;;;;12.20;100.00;151745.03;10445098;28;20135;-74
2024/03/15 20:48:27;;;;;;;1.35;1.00;;;;;;;12.19;99.64;151743.75;10462280;28;20041;-74
2024/03/15 20:53:28;;;;;;;0.90;0.80;;;;;;;12.25;98.84;151757.97;10462545;28;20516;-74
2024/03/15 20:58:30;;;;;;;1.83;1.10;;;;;;;12.01;99.91;151698.50;10464193;28;20041;-74
2024/03/15 21:03:33;;;;;;;1.23;0.80;;;;;;;11.97;100.00;151688.16;10445011;28;20056;-73
2024/03/15 21:08:35;;;;;;;0.90;0.52;;;;;;;11.84;100.00;151654.56;10469156;28;20090;-73
2024/03/15 21:13:37;;;;;;;0.80;0.52;;;;;;;11.77;100.00;151636.41;10466864;28;20060;-73
2024/03/15 21:18:39;;;;;;;0.70;0.70;;;;;;;11.95;98.59;151681.69;10470587;28;20060;-74
2024/03/15 21:23:41;;;;;;;1.15;1.00;;;;;;;11.77;100.00;151636.41;10445849;28;20043;-73
2024/03/15 21:28:43;;;;;;;1.10;0.90;;;;;;;11.68;100.00;151613.16;10463862;28;20546;-74
2024/03/15 21:33:46;;;;;;;1.15;0.93;;;;;;;11.59;100.00;151592.47;10464653;28;20045;-73
2024/03/15 21:38:48;;;;;;;0.95;0.75;;;;;;;11.47;100.00;151561.50;10463088;28;20094;-75
2024/03/15 21:43:51;;;;;;;1.25;0.80;;;;;;;11.59;100.00;151592.47;10445084;28;20136;-73
2024/03/15 21:48:53;;;;;;;0.90;0.73;;;;;;;11.58;100.00;151589.91;10462134;28;20439;-74
2024/03/15 21:53:55;;;;;;;0.70;0.70;;;;;;;11.61;100.00;151597.66;10460241;28;20041;-74
2024/03/15 21:59:04;;;;;;;1.38;0.80;;;;;;;11.55;100.00;151580.84;10460347;28;20041;-73
2024/03/15 22:04:06;;;;;;;0.80;0.70;;;;;;;11.43;100.00;151551.16;10442650;28;20127;-73
2024/03/15 22:09:10;;;;;;;0.88;0.70;;;;;;;11.35;100.00;151530.47;10461034;28;20041;-74
2024/03/15 22:14:12;;;;;;;0.95;0.85;;;;;;;11.24;100.00;151502.03;10441976;28;20049;-74
2024/03/15 22:19:14;;;;;;;1.30;0.73;;;;;;;11.29;100.00;151516.28;10458935;28;20491;-73
2024/03/15 22:24:16;;;;;;;0.80;0.80;;;;;;;11.30;100.00;151518.84;10440656;28;20053;-73
2024/03/15 22:29:19;;;;;;;0.90;0.80;;;;;;;11.27;100.00;151511.09;10465421;28;20083;-74
2024/03/15 22:34:21;;;;;;;0.80;0.80;;;;;;;11.20;100.00;151493.03;10469401;28;20055;-73
2024/03/15 22:39:23;;;;;;;0.90;0.65;;;;;;;11.28;100.00;151512.38;10467770;28;20052;-74
2024/03/15 22:44:24;;;;;;;0.82;0.63;;;;;;;11.29;100.00;151515.00;10468942;28;20045;-73
2024/03/15 22:49:26;;;;;;;0.80;0.70;;;;;;;11.28;100.00;151513.66;10449711;28;20087;-73
2024/03/15 22:54:28;;;;;;;1.23;0.80;;;;;;;11.33;99.30;151525.28;10466573;28;20037;-73
2024/03/15 22:59:30;;;;;;;0.82;0.70;;;;;;;11.33;98.90;151525.28;10466171;28;20067;-74
2024/03/15 23:04:32;;;;;;;1.20;0.70;;;;;;;11.13;100.00;151474.91;10448475;28;20040;-73